createdAt,value
2022-11-29T00:01:55.288Z,19.80
2022-11-29T00:04:21.468Z,18.40
2022-11-29T00:06:47.641Z,20.85
2022-11-29T00:09:13.808Z,20.10
2022-11-29T00:11:39.957Z,26.05
2022-11-29T00:14:06.129Z,19.70
2022-11-29T00:16:32.294Z,24.73
2022-11-29T00:18:58.433Z,17.70
2022-11-29T00:21:24.561Z,18.50
2022-11-29T00:23:50.789Z,20.38
2022-11-29T00:26:16.970Z,18.60
2022-11-29T00:28:43.288Z,18.73
2022-11-29T00:31:11.556Z,19.67
2022-11-29T00:33:37.728Z,19.88
2022-11-29T00:36:03.885Z,23.23
2022-11-29T00:38:30.083Z,20.15
2022-11-29T00:40:56.211Z,19.92
2022-11-29T00:43:22.412Z,17.92
2022-11-29T00:45:48.693Z,22.00
2022-11-29T00:48:15.009Z,19.60
2022-11-29T00:50:41.152Z,22.42
2022-11-29T00:53:07.353Z,21.33
2022-11-29T00:55:33.574Z,16.83
2022-11-29T00:57:59.734Z,20.20
2022-11-29T01:00:28.199Z,21.75
2022-11-29T01:02:54.337Z,19.10
2022-11-29T01:05:20.511Z,17.63
2022-11-29T01:07:46.715Z,17.92
2022-11-29T01:10:12.880Z,18.92
2022-11-29T01:12:39.093Z,20.52
2022-11-29T01:15:05.437Z,22.02
2022-11-29T01:17:31.591Z,18.42
2022-11-29T01:19:57.753Z,21.42
2022-11-29T01:22:23.940Z,17.30
2022-11-29T01:24:50.135Z,16.23
2022-11-29T01:27:16.265Z,16.42
2022-11-29T01:29:42.400Z,21.48
2022-11-29T01:32:08.602Z,22.45
2022-11-29T01:34:34.875Z,20.42
2022-11-29T01:37:01.017Z,18.77
2022-11-29T01:39:27.209Z,20.20
2022-11-29T01:41:53.345Z,21.30
2022-11-29T01:44:19.478Z,19.90
2022-11-29T01:46:45.623Z,21.95
2022-11-29T01:49:11.762Z,20.58
2022-11-29T01:51:37.924Z,17.25
2022-11-29T01:54:04.317Z,22.60
2022-11-29T01:56:30.447Z,19.48
2022-11-29T01:58:56.617Z,19.98
2022-11-29T02:01:22.797Z,20.73
2022-11-29T02:03:49.008Z,18.98
2022-11-29T02:06:15.223Z,20.73
2022-11-29T02:08:41.349Z,16.98
2022-11-29T02:11:07.519Z,18.63
2022-11-29T02:13:33.728Z,17.25
2022-11-29T02:15:59.920Z,16.65
2022-11-29T02:18:26.127Z,20.33
2022-11-29T02:20:52.292Z,19.27
2022-11-29T02:23:18.565Z,20.95
2022-11-29T02:25:44.745Z,18.23
2022-11-29T02:28:10.875Z,19.02
2022-11-29T02:30:37.072Z,18.20
2022-11-29T02:33:03.331Z,20.23
2022-11-29T02:35:29.938Z,18.50
2022-11-29T02:37:56.092Z,18.90
2022-11-29T02:40:22.287Z,19.83
2022-11-29T02:42:52.585Z,17.35
2022-11-29T02:45:22.473Z,22.55
2022-11-29T02:47:48.623Z,20.05
2022-11-29T02:50:14.780Z,18.27
2022-11-29T02:52:40.920Z,17.77
2022-11-29T02:55:07.044Z,21.48
2022-11-29T02:57:33.204Z,16.70
2022-11-29T02:59:59.372Z,17.70
2022-11-29T03:02:25.591Z,18.02
2022-11-29T03:04:51.865Z,16.33
2022-11-29T03:07:18.085Z,20.27
2022-11-29T03:09:45.459Z,22.98
2022-11-29T03:12:11.669Z,21.70
2022-11-29T03:14:37.832Z,20.45
2022-11-29T03:17:03.998Z,30.75
2022-11-29T03:19:30.123Z,17.40
2022-11-29T03:21:56.322Z,21.58
2022-11-29T03:24:22.474Z,21.73
2022-11-29T03:26:48.691Z,21.23
2022-11-29T03:29:14.983Z,16.38
2022-11-29T03:31:41.297Z,16.35
2022-11-29T03:34:07.509Z,24.23
2022-11-29T03:36:33.738Z,18.05
2022-11-29T03:38:59.940Z,20.83
2022-11-29T03:41:26.146Z,20.90
2022-11-29T03:43:52.327Z,22.20
2022-11-29T03:46:18.550Z,18.83
2022-11-29T03:48:44.730Z,21.88
2022-11-29T03:51:10.907Z,19.38
2022-11-29T03:53:37.139Z,22.02
2022-11-29T03:56:03.438Z,18.02
2022-11-29T03:58:29.596Z,21.27
2022-11-29T04:00:55.802Z,21.60
2022-11-29T04:03:22.041Z,18.75
2022-11-29T04:05:48.209Z,18.30
2022-11-29T04:08:14.414Z,20.83
2022-11-29T04:10:40.717Z,20.88
2022-11-29T04:13:06.939Z,27.85
2022-11-29T04:15:33.122Z,25.73
2022-11-29T04:17:59.301Z,31.55
2022-11-29T04:20:26.485Z,30.30
2022-11-29T04:22:52.669Z,33.10
2022-11-29T04:25:18.843Z,28.00
2022-11-29T04:27:45.012Z,29.63
2022-11-29T04:30:11.237Z,29.30
2022-11-29T04:32:37.366Z,26.95
2022-11-29T04:35:03.547Z,32.42
2022-11-29T04:37:29.695Z,29.02
2022-11-29T04:39:55.846Z,27.15
2022-11-29T04:42:21.997Z,31.98
2022-11-29T04:44:48.194Z,35.05
2022-11-29T04:47:14.344Z,35.05
2022-11-29T04:49:40.501Z,29.70
2022-11-29T04:52:06.700Z,29.48
2022-11-29T04:54:32.858Z,33.13
2022-11-29T04:56:59.003Z,52.13
2022-11-29T04:59:25.271Z,26.02
2022-11-29T05:01:51.520Z,31.85
2022-11-29T05:04:17.689Z,31.17
2022-11-29T05:06:43.914Z,25.48
2022-11-29T05:09:10.078Z,27.85
2022-11-29T05:11:36.278Z,34.10
2022-11-29T05:14:02.419Z,32.25
2022-11-29T05:16:28.618Z,27.45
2022-11-29T05:18:55.550Z,28.27
2022-11-29T05:21:21.832Z,26.55
2022-11-29T05:23:48.024Z,29.55
2022-11-29T05:26:14.227Z,29.95
2022-11-29T05:28:40.401Z,31.25
2022-11-29T05:31:06.753Z,29.95
2022-11-29T05:33:32.939Z,34.45
2022-11-29T05:35:59.091Z,38.75
2022-11-29T05:38:25.271Z,36.55
2022-11-29T05:40:51.443Z,34.70
2022-11-29T05:43:17.613Z,39.97
2022-11-29T05:45:46.496Z,34.35
2022-11-29T05:48:12.675Z,31.02
2022-11-29T05:50:38.847Z,30.20
2022-11-29T05:53:05.030Z,37.60
2022-11-29T05:55:31.207Z,42.03
2022-11-29T05:57:57.346Z,33.90
2022-11-29T06:00:23.501Z,37.78
2022-11-29T06:02:49.722Z,36.53
2022-11-29T06:05:15.870Z,35.97
2022-11-29T06:07:42.076Z,54.17
2022-11-29T06:10:08.468Z,31.48
2022-11-29T06:12:34.632Z,33.88
2022-11-29T06:15:00.806Z,34.08
2022-11-29T06:17:26.976Z,31.23
2022-11-29T06:19:53.118Z,31.20
2022-11-29T06:22:19.277Z,32.22
2022-11-29T06:24:45.690Z,31.60
2022-11-29T06:27:11.983Z,28.48
2022-11-29T06:29:38.163Z,35.55
2022-11-29T06:32:04.315Z,33.58
2022-11-29T06:34:30.980Z,33.03
2022-11-29T06:36:57.256Z,32.75
2022-11-29T06:39:23.391Z,30.08
2022-11-29T06:41:49.583Z,32.75
2022-11-29T06:44:15.705Z,33.83
2022-11-29T06:46:41.926Z,35.55
2022-11-29T06:49:08.128Z,27.48
2022-11-29T06:51:34.251Z,29.75
2022-11-29T06:54:00.411Z,38.72
2022-11-29T06:56:26.578Z,34.25
2022-11-29T06:58:52.763Z,33.20
2022-11-29T07:01:18.994Z,28.52
2022-11-29T07:03:45.163Z,29.58
2022-11-29T07:06:18.732Z,34.40
2022-11-29T07:08:44.854Z,31.30
2022-11-29T07:11:10.994Z,29.10
2022-11-29T07:13:37.160Z,26.15
2022-11-29T07:16:03.391Z,35.33
2022-11-29T07:18:29.636Z,25.00
2022-11-29T07:20:55.788Z,26.92
2022-11-29T07:23:21.968Z,30.08
2022-11-29T07:25:48.145Z,36.33
2022-11-29T07:28:14.302Z,33.40
2022-11-29T07:30:40.474Z,33.55
2022-11-29T07:33:06.638Z,32.83
2022-11-29T07:35:32.802Z,34.15
2022-11-29T07:37:58.996Z,28.05
2022-11-29T07:40:25.223Z,26.65
2022-11-29T07:42:51.396Z,34.20
2022-11-29T07:45:17.618Z,31.92
2022-11-29T07:47:43.765Z,45.72
2022-11-29T07:50:09.880Z,39.35
2022-11-29T07:52:36.075Z,41.28
2022-11-29T07:55:02.251Z,40.13
2022-11-29T07:57:28.417Z,42.10
2022-11-29T07:59:54.688Z,38.80
2022-11-29T08:02:20.962Z,42.08
2022-11-29T08:04:47.480Z,53.95
2022-11-29T08:07:19.434Z,41.10
2022-11-29T08:09:45.895Z,44.88
2022-11-29T08:12:12.220Z,47.28
2022-11-29T08:14:38.452Z,50.67
2022-11-29T08:17:04.650Z,39.08
2022-11-29T08:19:30.774Z,39.25
2022-11-29T08:21:56.947Z,41.60
2022-11-29T08:24:23.138Z,35.10
2022-11-29T08:26:49.332Z,33.67
2022-11-29T08:29:15.565Z,33.75
2022-11-29T08:31:41.813Z,33.97
2022-11-29T08:34:08.025Z,32.90
2022-11-29T08:36:37.360Z,35.90
2022-11-29T08:39:08.861Z,33.83
2022-11-29T08:41:36.618Z,36.80
2022-11-29T08:44:02.788Z,39.95
2022-11-29T08:46:28.949Z,37.90
2022-11-29T08:48:55.092Z,36.33
2022-11-29T08:51:21.234Z,37.72
2022-11-29T08:53:47.466Z,35.15
2022-11-29T08:56:59.594Z,31.38
2022-11-29T08:58:59.818Z,31.48
2022-11-29T09:01:26.093Z,27.92
2022-11-29T09:03:52.234Z,32.22
2022-11-29T09:06:18.371Z,29.30
2022-11-29T09:08:44.564Z,30.40
2022-11-29T09:11:10.717Z,30.38
2022-11-29T09:13:36.916Z,25.45
2022-11-29T09:16:03.074Z,28.20
2022-11-29T09:18:29.212Z,27.60
2022-11-29T09:20:55.361Z,29.40
2022-11-29T09:23:21.527Z,22.85
2022-11-29T09:25:47.669Z,25.50
2022-11-29T09:28:13.855Z,25.38
2022-11-29T09:30:40.249Z,27.10
2022-11-29T09:33:06.440Z,28.23
2022-11-29T09:35:32.600Z,29.17
2022-11-29T09:37:59.940Z,26.55
2022-11-29T09:40:26.093Z,26.60
2022-11-29T09:42:52.218Z,28.33
2022-11-29T09:45:18.333Z,23.35
2022-11-29T09:47:44.526Z,27.73
2022-11-29T09:50:10.716Z,28.40
2022-11-29T09:52:36.890Z,31.23
2022-11-29T09:55:03.076Z,29.95
2022-11-29T09:57:29.443Z,26.42
2022-11-29T09:59:55.649Z,32.22
2022-11-29T10:02:22.751Z,30.58
2022-11-29T10:04:49.011Z,31.05
2022-11-29T10:07:15.321Z,34.97
2022-11-29T10:09:41.737Z,29.40
2022-11-29T10:12:07.952Z,30.35
2022-11-29T10:14:34.201Z,32.85
2022-11-29T10:17:00.505Z,32.38
2022-11-29T10:19:26.714Z,31.00
2022-11-29T10:21:52.957Z,37.78
2022-11-29T10:24:19.562Z,32.33
2022-11-29T10:26:45.812Z,31.80
2022-11-29T10:29:12.084Z,31.27
2022-11-29T10:31:38.250Z,31.50
2022-11-29T10:34:09.855Z,31.80
2022-11-29T10:36:36.102Z,34.17
2022-11-29T10:39:02.493Z,29.88
2022-11-29T10:41:28.724Z,28.52
2022-11-29T10:43:55.033Z,28.13
2022-11-29T10:46:21.257Z,26.63
2022-11-29T10:48:47.448Z,26.33
2022-11-29T10:51:14.723Z,28.98
2022-11-29T10:53:41.064Z,24.83
2022-11-29T10:56:07.269Z,25.77
2022-11-29T10:58:33.639Z,25.00
2022-11-29T11:00:59.964Z,27.13
2022-11-29T11:03:26.324Z,25.73
2022-11-29T11:05:52.517Z,28.17
2022-11-29T11:08:18.746Z,25.42
2022-11-29T11:10:48.218Z,27.02
2022-11-29T11:13:18.662Z,25.20
2022-11-29T11:15:44.878Z,26.02
2022-11-29T11:18:11.067Z,28.75
2022-11-29T11:20:37.336Z,27.50
2022-11-29T11:23:03.568Z,28.15
2022-11-29T11:25:29.706Z,27.13
2022-11-29T11:27:55.982Z,23.13
2022-11-29T11:30:22.174Z,24.27
2022-11-29T11:32:48.377Z,25.42
2022-11-29T11:35:18.414Z,26.92
2022-11-29T11:37:44.845Z,28.38
2022-11-29T11:40:11.057Z,24.65
2022-11-29T11:42:37.284Z,27.15
2022-11-29T11:45:03.707Z,29.67
2022-11-29T11:47:30.299Z,28.08
2022-11-29T11:49:56.680Z,31.15
2022-11-29T11:52:22.892Z,26.08
2022-11-29T11:54:49.017Z,25.85
2022-11-29T11:57:15.287Z,25.60
2022-11-29T11:59:41.438Z,24.90
2022-11-29T12:02:07.637Z,26.13
2022-11-29T12:04:33.867Z,25.17
2022-11-29T12:07:00.206Z,32.50
2022-11-29T12:09:26.412Z,22.55
2022-11-29T12:11:52.787Z,27.85
2022-11-29T12:14:19.040Z,30.98
2022-11-29T12:16:45.436Z,27.50
2022-11-29T12:19:11.640Z,25.17
2022-11-29T12:21:37.845Z,27.65
2022-11-29T12:24:04.069Z,25.02
2022-11-29T12:26:55.917Z,24.92
2022-11-29T12:29:17.692Z,20.45
2022-11-29T12:31:43.860Z,20.83
2022-11-29T12:34:10.011Z,23.55
2022-11-29T12:36:36.192Z,24.27
2022-11-29T12:39:02.398Z,26.92
2022-11-29T12:41:35.192Z,27.55
2022-11-29T12:44:01.365Z,25.13
2022-11-29T12:46:27.596Z,31.75
2022-11-29T12:48:53.803Z,25.58
2022-11-29T12:51:20.224Z,24.98
2022-11-29T12:53:46.409Z,24.67
2022-11-29T12:56:12.756Z,28.55
2022-11-29T12:58:44.220Z,23.83
2022-11-29T13:01:12.279Z,25.52
2022-11-29T13:03:38.617Z,26.30
2022-11-29T13:06:06.280Z,26.17
2022-11-29T13:08:32.468Z,27.70
2022-11-29T13:10:58.893Z,27.58
2022-11-29T13:13:25.089Z,28.90
2022-11-29T13:15:51.388Z,28.35
2022-11-29T13:18:17.708Z,33.47
2022-11-29T13:20:43.900Z,29.08
2022-11-29T13:23:10.198Z,30.52
2022-11-29T13:25:36.453Z,25.35
2022-11-29T13:28:05.861Z,29.75
2022-11-29T13:30:32.229Z,28.45
2022-11-29T13:32:58.525Z,33.83
2022-11-29T13:35:25.002Z,28.55
2022-11-29T13:37:55.219Z,27.88
2022-11-29T13:40:21.896Z,30.57
2022-11-29T13:42:48.050Z,32.13
2022-11-29T13:45:14.258Z,32.15
2022-11-29T13:47:40.675Z,27.25
2022-11-29T13:50:07.143Z,35.28
2022-11-29T13:52:33.677Z,42.22
2022-11-29T13:54:59.848Z,41.42
2022-11-29T13:57:26.230Z,40.67
2022-11-29T13:59:52.655Z,39.75
2022-11-29T14:02:18.824Z,32.25
2022-11-29T14:04:45.403Z,40.15
2022-11-29T14:07:11.896Z,37.65
2022-11-29T14:09:38.128Z,35.80
2022-11-29T14:12:04.332Z,48.63
2022-11-29T14:14:30.535Z,39.03
2022-11-29T14:16:56.961Z,39.58
2022-11-29T14:19:23.362Z,55.08
2022-11-29T14:21:49.551Z,46.45
2022-11-29T14:24:15.909Z,46.28
2022-11-29T14:26:42.140Z,39.72
2022-11-29T14:29:08.337Z,49.90
2022-11-29T14:31:34.619Z,41.95
2022-11-29T14:34:04.884Z,41.63
2022-11-29T14:36:31.054Z,39.08
2022-11-29T14:38:57.227Z,35.00
2022-11-29T14:41:23.410Z,44.65
2022-11-29T14:43:49.639Z,41.08
2022-11-29T14:46:15.951Z,48.53
2022-11-29T14:48:42.334Z,44.33
2022-11-29T14:51:08.565Z,45.47
2022-11-29T14:53:34.913Z,35.03
2022-11-29T14:56:01.165Z,35.47
2022-11-29T14:58:27.361Z,40.00
2022-11-29T15:00:56.144Z,47.97
2022-11-29T15:03:22.504Z,40.95
2022-11-29T15:05:48.747Z,45.17
2022-11-29T15:08:16.904Z,42.63
2022-11-29T15:10:43.138Z,40.03
2022-11-29T15:13:09.529Z,45.80
2022-11-29T15:15:35.891Z,46.05
2022-11-29T15:18:02.074Z,49.65
2022-11-29T15:20:28.269Z,48.90
2022-11-29T15:22:54.602Z,44.42
2022-11-29T15:25:20.976Z,44.90
2022-11-29T15:27:47.238Z,41.03
2022-11-29T15:30:19.575Z,42.83
2022-11-29T15:32:45.757Z,45.30
2022-11-29T15:35:12.016Z,47.00
2022-11-29T15:37:44.246Z,46.03
2022-11-29T15:40:10.701Z,40.45
2022-11-29T15:42:36.885Z,44.25
2022-11-29T15:45:03.106Z,43.25
2022-11-29T15:47:29.317Z,41.42
2022-11-29T15:49:58.806Z,41.97
2022-11-29T15:52:24.979Z,44.80
2022-11-29T15:54:51.186Z,46.38
2022-11-29T15:57:17.311Z,45.15
2022-11-29T15:59:43.554Z,47.40
2022-11-29T16:02:09.748Z,41.42
2022-11-29T16:04:35.978Z,43.00
2022-11-29T16:07:05.250Z,51.05
2022-11-29T16:09:31.426Z,47.95
2022-11-29T16:11:57.746Z,51.65
2022-11-29T16:14:23.971Z,42.60
2022-11-29T16:16:50.262Z,47.83
2022-11-29T16:19:16.481Z,47.65
2022-11-29T16:21:42.732Z,44.63
2022-11-29T16:24:08.882Z,47.40
2022-11-29T16:26:35.394Z,45.13
2022-11-29T16:29:01.576Z,65.10
2022-11-29T16:31:27.964Z,49.03
2022-11-29T16:33:56.252Z,45.38
2022-11-29T16:36:22.446Z,47.72
2022-11-29T16:38:48.749Z,42.78
2022-11-29T16:41:14.950Z,53.28
2022-11-29T16:43:41.204Z,45.55
2022-11-29T16:46:07.542Z,46.58
2022-11-29T16:48:33.790Z,49.65
2022-11-29T16:50:59.963Z,46.45
2022-11-29T16:53:26.115Z,48.38
2022-11-29T16:55:52.286Z,48.75
2022-11-29T16:58:18.523Z,45.22
2022-11-29T17:00:44.736Z,50.65
2022-11-29T17:03:10.892Z,54.00
2022-11-29T17:05:41.609Z,41.35
2022-11-29T17:08:10.622Z,39.33
2022-11-29T17:10:36.774Z,38.92
2022-11-29T17:13:02.902Z,40.88
2022-11-29T17:15:29.022Z,47.55
2022-11-29T17:17:55.179Z,40.55
2022-11-29T17:20:21.364Z,44.75
2022-11-29T17:22:47.489Z,49.13
2022-11-29T17:25:13.662Z,35.97
2022-11-29T17:27:39.870Z,42.88
2022-11-29T17:30:06.067Z,40.60
2022-11-29T17:32:32.185Z,44.08
2022-11-29T17:34:58.574Z,46.35
2022-11-29T17:37:24.799Z,43.80
2022-11-29T17:39:50.979Z,41.08
2022-11-29T17:42:17.325Z,47.35
2022-11-29T17:44:43.431Z,38.80
2022-11-29T17:47:09.584Z,42.00
2022-11-29T17:49:35.706Z,43.40
2022-11-29T17:52:01.827Z,50.97
2022-11-29T17:54:27.990Z,46.80
2022-11-29T17:56:54.116Z,43.17
2022-11-29T17:59:20.303Z,44.08
2022-11-29T18:01:46.524Z,39.83
2022-11-29T18:04:12.703Z,41.30
2022-11-29T18:06:38.876Z,44.83
2022-11-29T18:09:05.050Z,47.00
2022-11-29T18:11:31.229Z,47.45
2022-11-29T18:13:57.452Z,46.38
2022-11-29T18:16:23.714Z,39.50
2022-11-29T18:18:49.899Z,43.97
2022-11-29T18:21:16.127Z,46.80
2022-11-29T18:23:42.287Z,44.85
2022-11-29T18:26:08.431Z,44.30
2022-11-29T18:28:34.559Z,46.90
2022-11-29T18:31:00.812Z,43.85
2022-11-29T18:33:26.956Z,51.75
2022-11-29T18:35:53.168Z,47.92
2022-11-29T18:38:19.402Z,53.95
2022-11-29T18:40:45.534Z,58.22
2022-11-29T18:43:11.676Z,48.17
2022-11-29T18:45:38.074Z,49.97
2022-11-29T18:48:04.371Z,50.35
2022-11-29T18:50:30.531Z,50.40
2022-11-29T18:52:56.673Z,52.45
2022-11-29T18:55:22.792Z,56.13
2022-11-29T18:57:49.006Z,51.45
2022-11-29T19:00:15.218Z,51.50
2022-11-29T19:02:41.430Z,45.95
2022-11-29T19:05:07.612Z,49.10
2022-11-29T19:07:33.842Z,48.65
2022-11-29T19:10:00.038Z,45.90
2022-11-29T19:12:26.185Z,55.08
2022-11-29T19:14:52.447Z,44.50
2022-11-29T19:17:18.788Z,49.47
2022-11-29T19:19:45.238Z,45.50
2022-11-29T19:22:11.659Z,50.78
2022-11-29T19:24:37.835Z,52.50
2022-11-29T19:27:03.987Z,46.53
2022-11-29T19:29:32.034Z,41.88
2022-11-29T19:32:00.203Z,42.22
2022-11-29T19:34:26.385Z,41.25
2022-11-29T19:36:52.570Z,47.92
2022-11-29T19:39:21.801Z,46.20
2022-11-29T19:41:48.016Z,46.28
2022-11-29T19:44:14.181Z,41.30
2022-11-29T19:46:40.410Z,49.33
2022-11-29T19:49:06.605Z,49.00
2022-11-29T19:51:32.783Z,45.72
2022-11-29T19:53:58.964Z,45.00
2022-11-29T19:56:25.158Z,42.67
2022-11-29T19:58:51.319Z,39.63
2022-11-29T20:01:17.516Z,40.85
2022-11-29T20:03:43.742Z,41.25
2022-11-29T20:06:09.913Z,46.25
2022-11-29T20:08:36.079Z,43.92
2022-11-29T20:11:02.264Z,45.80
2022-11-29T20:13:28.428Z,45.00
2022-11-29T20:15:54.662Z,48.97
2022-11-29T20:18:20.831Z,37.42
2022-11-29T20:20:47.051Z,42.63
2022-11-29T20:23:13.239Z,43.22
2022-11-29T20:25:39.424Z,37.42
2022-11-29T20:28:05.579Z,42.85
2022-11-29T20:30:31.792Z,43.65
2022-11-29T20:32:57.975Z,41.97
2022-11-29T20:35:24.099Z,38.80
2022-11-29T20:37:50.274Z,48.13
2022-11-29T20:40:16.404Z,39.90
2022-11-29T20:42:42.588Z,48.13
2022-11-29T20:45:08.743Z,38.95
2022-11-29T20:47:34.958Z,40.17
2022-11-29T20:50:01.170Z,42.20
2022-11-29T20:52:27.341Z,44.97
2022-11-29T20:54:53.511Z,43.80
2022-11-29T20:57:19.708Z,37.28
2022-11-29T20:59:46.164Z,45.38
2022-11-29T21:02:12.459Z,33.67
2022-11-29T21:04:38.656Z,40.72
2022-11-29T21:07:04.854Z,33.45
2022-11-29T21:09:31.054Z,37.13
2022-11-29T21:11:57.238Z,33.55
2022-11-29T21:14:23.365Z,37.35
2022-11-29T21:16:49.566Z,38.30
2022-11-29T21:19:16.039Z,38.45
2022-11-29T21:21:42.239Z,37.78
2022-11-29T21:24:08.416Z,32.88
2022-11-29T21:26:40.048Z,38.70
2022-11-29T21:29:07.823Z,30.67
2022-11-29T21:31:39.847Z,33.17
2022-11-29T21:34:06.032Z,38.85
2022-11-29T21:36:32.180Z,39.83
2022-11-29T21:39:03.651Z,37.28
2022-11-29T21:41:31.168Z,43.03
2022-11-29T21:44:12.553Z,44.08
2022-11-29T21:46:38.752Z,42.42
2022-11-29T21:49:04.940Z,39.08
2022-11-29T21:51:31.069Z,45.53
2022-11-29T21:53:57.209Z,47.42
2022-11-29T21:56:23.445Z,50.10
2022-11-29T21:58:49.628Z,48.25
2022-11-29T22:01:15.859Z,45.60
2022-11-29T22:03:42.119Z,40.35
2022-11-29T22:06:08.240Z,45.97
2022-11-29T22:08:34.347Z,45.38
2022-11-29T22:11:00.511Z,41.08
2022-11-29T22:13:26.655Z,46.17
2022-11-29T22:15:52.851Z,38.08
2022-11-29T22:18:19.044Z,36.60
2022-11-29T22:20:45.209Z,41.78
2022-11-29T22:23:11.392Z,40.60
2022-11-29T22:25:37.540Z,39.22
2022-11-29T22:28:03.741Z,43.83
2022-11-29T22:30:29.900Z,39.47
2022-11-29T22:32:56.143Z,46.60
2022-11-29T22:35:22.313Z,49.00
2022-11-29T22:37:48.482Z,49.30
2022-11-29T22:40:14.634Z,57.08
2022-11-29T22:42:40.802Z,47.15
2022-11-29T22:45:06.985Z,52.40
2022-11-29T22:47:33.167Z,47.83
2022-11-29T22:49:59.350Z,54.00
2022-11-29T22:52:25.545Z,50.40
2022-11-29T22:54:51.717Z,50.88
2022-11-29T22:57:17.889Z,51.20
2022-11-29T22:59:44.097Z,51.17
2022-11-29T23:02:10.289Z,52.75
2022-11-29T23:04:36.444Z,47.15
2022-11-29T23:07:02.620Z,51.33
2022-11-29T23:09:28.799Z,50.58
2022-11-29T23:11:54.969Z,46.35
2022-11-29T23:14:21.111Z,40.05
2022-11-29T23:16:47.275Z,44.10
2022-11-29T23:19:13.441Z,52.05
2022-11-29T23:21:39.610Z,50.90
2022-11-29T23:24:05.734Z,40.20
2022-11-29T23:26:31.914Z,44.28
2022-11-29T23:28:58.115Z,47.55
2022-11-29T23:31:24.385Z,43.88
2022-11-29T23:33:50.607Z,51.97
2022-11-29T23:36:16.801Z,46.30
2022-11-29T23:38:42.917Z,37.88
2022-11-29T23:41:09.078Z,47.03
2022-11-29T23:43:35.238Z,49.35
2022-11-29T23:46:01.401Z,41.38
2022-11-29T23:48:27.627Z,42.88
2022-11-29T23:50:53.744Z,45.67
2022-11-29T23:53:19.932Z,48.60
2022-11-29T23:55:46.084Z,46.17
2022-11-29T23:58:12.215Z,46.53
